createdAt,value
2023-04-11T00:02:05.341Z,3.30
2023-04-11T00:07:08.191Z,2.90
2023-04-11T00:12:11.234Z,1.23
2023-04-11T00:17:14.804Z,1.60
2023-04-11T00:22:18.239Z,1.60
2023-04-11T00:27:22.051Z,0.88
2023-04-11T00:32:25.369Z,0.98
2023-04-11T00:37:28.121Z,1.20
2023-04-11T00:42:32.320Z,0.40
2023-04-11T00:47:35.434Z,0.47
2023-04-11T00:52:38.991Z,0.60
2023-04-11T00:57:42.788Z,0.43
2023-04-11T01:02:45.650Z,0.22
2023-04-11T01:07:51.991Z,0.45
2023-04-11T01:12:54.727Z,0.50
2023-04-11T01:17:58.175Z,0.17
2023-04-11T01:23:03.487Z,0.10
2023-04-11T01:28:09.088Z,0.03
2023-04-11T01:33:12.536Z,0.20
2023-04-11T01:38:15.921Z,0.15
2023-04-11T01:43:18.599Z,0.40
2023-04-11T01:48:21.487Z,0.40
2023-04-11T01:53:24.478Z,0.30
2023-04-11T01:58:27.143Z,0.30
2023-04-11T02:03:30.540Z,0.40
2023-04-11T02:08:33.444Z,0.50
2023-04-11T02:13:36.314Z,0.52
2023-04-11T02:18:39.098Z,0.30
2023-04-11T02:23:41.844Z,0.30
2023-04-11T02:28:44.560Z,0.45
2023-04-11T02:33:47.250Z,0.70
2023-04-11T02:38:50.079Z,0.30
2023-04-11T02:43:52.780Z,0.20
2023-04-11T02:48:59.541Z,0.93
2023-04-11T02:54:02.629Z,0.70
2023-04-11T02:59:07.229Z,0.75
2023-04-11T03:04:10.995Z,1.10
2023-04-11T03:09:29.584Z,1.02
2023-04-11T03:14:32.377Z,0.43
2023-04-11T03:19:35.610Z,0.68
2023-04-11T03:24:39.986Z,0.20
2023-04-11T03:29:43.269Z,0.40
2023-04-11T03:34:54.106Z,0.80
2023-04-11T03:39:58.109Z,1.40
2023-04-11T03:45:01.061Z,1.10
2023-04-11T03:50:04.283Z,1.13
2023-04-11T03:55:13.861Z,1.00
2023-04-11T04:00:16.915Z,0.80
2023-04-11T04:05:30.237Z,0.85
2023-04-11T04:10:33.305Z,0.60
2023-04-11T04:15:36.595Z,0.50
2023-04-11T04:20:39.431Z,0.35
2023-04-11T04:25:42.640Z,0.70
2023-04-11T04:30:54.590Z,0.40
2023-04-11T04:36:00.444Z,0.90
2023-04-11T04:41:15.281Z,0.65
2023-04-11T04:46:23.984Z,0.70
2023-04-11T04:51:30.596Z,0.30
2023-04-11T04:56:33.460Z,0.70
2023-04-11T05:01:40.468Z,0.65
2023-04-11T05:06:45.208Z,1.05
2023-04-11T05:11:48.091Z,0.90
2023-04-11T05:16:51.661Z,0.70
2023-04-11T05:21:55.422Z,1.10
2023-04-11T05:26:58.567Z,0.40
2023-04-11T05:32:01.725Z,0.52
2023-04-11T05:37:04.841Z,0.98
2023-04-11T05:42:08.111Z,0.60
2023-04-11T05:47:12.245Z,1.27
2023-04-11T05:52:14.973Z,0.80
2023-04-11T05:57:18.008Z,0.75
2023-04-11T06:02:21.028Z,0.60
2023-04-11T06:07:23.898Z,0.40
2023-04-11T06:12:26.728Z,0.50
2023-04-11T06:17:29.661Z,0.52
2023-04-11T06:22:32.481Z,0.35
2023-04-11T06:27:35.294Z,1.10
2023-04-11T06:32:38.145Z,0.52
2023-04-11T06:37:42.679Z,0.50
2023-04-11T06:42:45.376Z,0.30
2023-04-11T06:47:48.104Z,0.40
2023-04-11T06:52:50.948Z,0.65
2023-04-11T06:57:53.648Z,0.50
2023-04-11T07:02:56.572Z,0.80
2023-04-11T07:08:00.114Z,0.40
2023-04-11T07:13:02.840Z,0.40
2023-04-11T07:18:05.630Z,0.95
2023-04-11T07:23:08.440Z,1.20
2023-04-11T07:28:12.082Z,0.50
2023-04-11T07:33:14.779Z,0.57
2023-04-11T07:38:27.615Z,0.75
2023-04-11T07:43:30.634Z,0.52
2023-04-11T07:48:33.427Z,0.30
2023-04-11T07:53:36.716Z,0.40
2023-04-11T07:58:39.541Z,0.40
2023-04-11T08:03:42.621Z,0.50
2023-04-11T08:08:46.682Z,1.15
2023-04-11T08:13:49.900Z,0.60
2023-04-11T08:18:52.708Z,0.60
2023-04-11T08:23:55.759Z,0.60
2023-04-11T08:28:58.633Z,0.50
2023-04-11T08:34:03.235Z,0.73
2023-04-11T08:39:07.247Z,0.50
2023-04-11T08:44:12.499Z,0.50
2023-04-11T08:49:15.327Z,0.60
2023-04-11T08:54:18.085Z,0.47
2023-04-11T08:59:20.742Z,0.32
2023-04-11T09:04:40.403Z,0.50
2023-04-11T09:09:43.930Z,0.60
2023-04-11T09:14:46.777Z,0.60
2023-04-11T09:19:49.741Z,0.40
2023-04-11T09:25:04.790Z,0.45
2023-04-11T09:30:26.565Z,0.70
2023-04-11T09:35:29.387Z,0.70
2023-04-11T09:40:42.694Z,0.55
2023-04-11T09:45:54.095Z,0.70
2023-04-11T09:50:58.853Z,0.38
2023-04-11T09:56:02.315Z,1.37
2023-04-11T10:01:07.960Z,1.30
2023-04-11T10:06:14.631Z,0.70
2023-04-11T10:11:22.426Z,0.70
2023-04-11T10:16:28.909Z,0.57
2023-04-11T10:21:33.146Z,0.30
2023-04-11T10:26:56.003Z,0.43
2023-04-11T10:32:19.523Z,0.85
2023-04-11T10:37:33.594Z,1.20
2023-04-11T10:42:43.969Z,0.70
2023-04-11T10:47:52.724Z,0.50
2023-04-11T10:52:56.636Z,0.93
2023-04-11T10:58:08.778Z,1.23
2023-04-11T11:03:30.674Z,0.85
2023-04-11T11:08:35.484Z,0.85
2023-04-11T11:13:46.344Z,1.02
2023-04-11T11:18:57.019Z,1.95
2023-04-11T11:24:01.258Z,0.93
2023-04-11T11:29:05.619Z,1.70
2023-04-11T11:34:23.078Z,0.80
2023-04-11T11:39:26.989Z,1.08
2023-04-11T11:44:31.666Z,0.80
2023-04-11T11:49:45.269Z,0.90
2023-04-11T11:54:48.286Z,1.02
2023-04-11T11:59:58.152Z,0.55
2023-04-11T12:05:02.789Z,2.40
2023-04-11T12:10:12.136Z,1.20
2023-04-11T12:15:19.345Z,2.40
2023-04-11T12:20:26.954Z,1.67
2023-04-11T12:25:30.574Z,1.13
2023-04-11T12:30:33.440Z,0.77
2023-04-11T12:35:36.263Z,1.05
2023-04-11T12:40:39.023Z,0.80
2023-04-11T12:45:41.743Z,1.10
2023-04-11T12:50:44.565Z,1.00
2023-04-11T12:55:47.399Z,0.98
2023-04-11T13:00:50.119Z,1.10
2023-04-11T13:05:53.023Z,2.40
2023-04-11T13:10:56.061Z,0.70
2023-04-11T13:15:58.838Z,1.23
2023-04-11T13:21:01.801Z,0.80
2023-04-11T13:26:04.642Z,1.02
2023-04-11T13:31:10.710Z,1.25
2023-04-11T13:36:13.458Z,1.10
2023-04-11T13:41:24.624Z,0.85
2023-04-11T13:46:27.781Z,1.50
2023-04-11T13:51:30.503Z,1.17
2023-04-11T13:56:33.258Z,0.60
2023-04-11T14:01:36.124Z,0.73
2023-04-11T14:06:39.877Z,0.85
2023-04-11T14:11:42.589Z,1.40
2023-04-11T14:16:45.329Z,2.20
2023-04-11T14:21:48.274Z,2.20
2023-04-11T14:26:51.080Z,2.35
2023-04-11T14:31:53.996Z,1.35
2023-04-11T14:36:56.804Z,1.88
2023-04-11T14:42:01.811Z,2.45
2023-04-11T14:47:04.679Z,2.42
2023-04-11T14:52:07.571Z,1.95
2023-04-11T14:57:10.645Z,1.20
2023-04-11T15:02:13.791Z,1.70
2023-04-11T15:07:16.651Z,1.35
2023-04-11T15:12:19.378Z,1.00
2023-04-11T15:17:22.208Z,1.42
2023-04-11T15:22:25.004Z,0.80
2023-04-11T15:27:27.711Z,1.05
2023-04-11T15:32:30.873Z,1.75
2023-04-11T15:37:33.786Z,1.05
2023-04-11T15:42:37.881Z,0.73
2023-04-11T15:47:41.000Z,0.50
2023-04-11T15:52:44.566Z,0.40
2023-04-11T15:57:52.186Z,0.43
2023-04-11T16:02:55.238Z,0.50
2023-04-11T16:07:58.272Z,0.90
2023-04-11T16:13:01.872Z,0.82
2023-04-11T16:18:04.936Z,0.50
2023-04-11T16:23:07.633Z,0.60
2023-04-11T16:28:10.460Z,0.80
2023-04-11T16:33:13.368Z,0.60
2023-04-11T16:38:16.600Z,0.47
2023-04-11T16:43:19.327Z,0.55
2023-04-11T16:48:21.998Z,0.43
2023-04-11T16:53:24.729Z,0.47
2023-04-11T16:58:27.862Z,0.88
2023-04-11T17:03:31.319Z,0.70
2023-04-11T17:08:34.099Z,1.10
2023-04-11T17:13:40.144Z,1.00
2023-04-11T17:18:43.353Z,1.05
2023-04-11T17:23:47.083Z,0.85
2023-04-11T17:28:50.359Z,0.93
2023-04-11T17:33:53.131Z,0.82
2023-04-11T17:38:56.264Z,1.02
2023-04-11T17:43:59.237Z,0.65
2023-04-11T17:49:02.244Z,0.98
2023-04-11T17:54:05.169Z,0.85
2023-04-11T17:59:07.950Z,1.02
2023-04-11T18:04:12.422Z,1.02
2023-04-11T18:09:18.221Z,0.93
2023-04-11T18:14:20.985Z,1.20
2023-04-11T18:19:23.985Z,1.33
2023-04-11T18:24:26.828Z,1.30
2023-04-11T18:29:29.603Z,1.20
2023-04-11T18:34:32.337Z,1.00
2023-04-11T18:39:35.083Z,1.40
2023-04-11T18:44:37.859Z,0.75
2023-04-11T18:49:41.667Z,1.00
2023-04-11T18:54:45.564Z,1.80
2023-04-11T19:04:53.459Z,1.42
2023-04-11T19:09:56.615Z,1.60
2023-04-11T19:14:59.375Z,1.30
2023-04-11T19:20:03.015Z,1.20
2023-04-11T19:25:06.231Z,1.60
2023-04-11T19:30:10.518Z,1.67
2023-04-11T19:35:13.784Z,1.52
2023-04-11T19:40:18.750Z,1.83
2023-04-11T19:45:22.413Z,1.23
2023-04-11T19:50:25.844Z,1.08
2023-04-11T19:55:29.073Z,1.30
2023-04-11T20:00:36.470Z,1.00
2023-04-11T20:05:39.212Z,1.13
2023-04-11T20:10:41.975Z,1.10
2023-04-11T20:15:44.726Z,1.00
2023-04-11T20:20:47.502Z,0.68
2023-04-11T20:25:50.140Z,1.10
2023-04-11T20:30:52.946Z,2.20
2023-04-11T20:35:58.596Z,1.92
2023-04-11T20:41:04.079Z,1.27
2023-04-11T20:46:08.821Z,1.40
2023-04-11T20:51:11.741Z,1.40
2023-04-11T20:56:15.242Z,1.40
2023-04-11T21:01:18.825Z,1.20
2023-04-11T21:06:23.023Z,1.63
2023-04-11T21:11:26.847Z,1.20
2023-04-11T21:16:29.457Z,1.57
2023-04-11T21:21:32.175Z,1.50
2023-04-11T21:26:35.096Z,1.10
2023-04-11T21:31:37.782Z,1.30
2023-04-11T21:36:40.665Z,1.48
2023-04-11T21:41:43.342Z,0.98
2023-04-11T21:46:46.079Z,1.30
2023-04-11T21:51:48.981Z,1.60
2023-04-11T21:56:52.167Z,1.13
2023-04-11T22:01:55.014Z,2.10
2023-04-11T22:07:00.861Z,1.42
2023-04-11T22:12:03.936Z,0.88
2023-04-11T22:17:06.645Z,1.70
2023-04-11T22:22:09.392Z,1.83
2023-04-11T22:27:12.361Z,0.73
2023-04-11T22:32:14.960Z,1.95
2023-04-11T22:37:17.803Z,1.70
2023-04-11T22:42:21.272Z,1.40
2023-04-11T22:47:24.135Z,1.67
2023-04-11T22:52:30.474Z,1.88
2023-04-11T22:57:33.915Z,2.80
2023-04-11T23:02:40.247Z,1.92
2023-04-11T23:07:43.123Z,2.03
2023-04-11T23:12:46.272Z,2.45
2023-04-11T23:17:49.520Z,2.22
2023-04-11T23:22:52.253Z,2.00
2023-04-11T23:27:54.973Z,1.20
2023-04-11T23:32:57.790Z,1.80
2023-04-11T23:38:02.318Z,2.28
2023-04-11T23:43:04.989Z,2.22
2023-04-11T23:48:07.829Z,2.45
2023-04-11T23:53:10.564Z,1.88
2023-04-11T23:58:13.757Z,2.50
